Time;durP1;ratioP1;P1;durP2;ratioP2;P2;SDS_P1;SDS_P2;PMS_P1;PMS_P2;Temp;Humidity;BMP_temperature;BMP_pressure;BME280_temperature;BME280_humidity;BME280_pressure;Samples;Min_cycle;Max_cycle;Signal;HPM_P1;HPM_P2
2023/08/27 00:01:05;;;;;;;;;0.00;0.00;;;;;;;;5044868;27;45562;-84
2023/08/27 00:03:30;;;;;;;;;1.00;1.00;;;;;;;;5040352;28;46058;-83
2023/08/27 00:05:57;;;;;;;;;1.00;1.00;;;;;;;;5031693;28;45651;-81
2023/08/27 00:08:28;;;;;;;;;0.00;0.00;;;;;;;;5062759;27;45888;-84
2023/08/27 00:10:59;;;;;;;;;0.00;0.00;;;;;;;;5051568;28;45847;-81
2023/08/27 00:13:25;;;;;;;;;0.00;0.00;;;;;;;;5056300;28;45604;-83
2023/08/27 00:15:54;;;;;;;;;1.00;1.00;;;;;;;;5036109;28;45624;-83
2023/08/27 00:18:37;;;;;;;;;1.00;1.00;;;;;;;;5070426;28;45358;-82
2023/08/27 00:21:09;;;;;;;;;3.75;2.00;;;;;;;;5084035;28;45443;-83
2023/08/27 00:23:45;;;;;;;;;4.67;1.00;;;;;;;;5075990;28;45303;-84
2023/08/27 00:26:13;;;;;;;;;2.00;1.00;;;;;;;;5076203;28;46373;-81
2023/08/27 00:28:48;;;;;;;;;1.00;1.00;;;;;;;;5063490;28;44787;-85
2023/08/27 00:31:23;;;;;;;;;1.00;1.00;;;;;;;;5064244;28;44756;-82
2023/08/27 00:33:51;;;;;;;;;0.75;0.75;;;;;;;;5062900;28;44863;-83
2023/08/27 00:36:25;;;;;;;;;1.00;1.00;;;;;;;;5092878;28;45410;-84
2023/08/27 00:38:55;;;;;;;;;1.75;0.75;;;;;;;;5081554;28;44738;-86
2023/08/27 00:41:31;;;;;;;;;1.00;1.00;;;;;;;;5080986;27;45624;-82
2023/08/27 00:44:06;;;;;;;;;2.00;1.00;;;;;;;;5063917;28;45059;-83
2023/08/27 00:56:10;;;;;;;;;0.50;0.50;;;;;;;;5000740;28;45094;-83
2023/08/27 00:59:38;;;;;;;;;;;;;;;;;;;;;
2023/08/27 01:02:37;;;;;;;;;;;;;;;;;;;;;
2023/08/27 01:05:36;;;;;;;;;;;;;;;;;;;;;
2023/08/27 01:23:47;;;;;;;;;1.50;1.00;;;;;;;;4971043;28;45403;-84
2023/08/27 01:26:38;;;;;;;;;0.00;0.00;;;;;;;;5007186;28;44811;-82
2023/08/27 01:57:20;;;;;;;;;0.75;0.75;;;;;;;;4938977;28;45777;-79
2023/08/27 01:59:46;;;;;;;;;1.67;1.00;;;;;;;;4953596;28;45381;-80
2023/08/27 02:02:11;;;;;;;;;0.33;0.33;;;;;;;;4993765;28;45732;-80
2023/08/27 02:04:37;;;;;;;;;1.75;1.75;;;;;;;;5025335;28;45351;-79
2023/08/27 02:07:03;;;;;;;;;0.50;0.50;;;;;;;;5006981;28;46062;-80
2023/08/27 02:09:31;;;;;;;;;1.75;0.25;;;;;;;;5034149;28;45712;-83
2023/08/27 02:12:35;;;;;;;;;0.00;0.00;;;;;;;;5027310;28;44766;-83
2023/08/27 04:02:21;;;;;;;;;1.00;1.00;;;;;;;;4959968;28;45678;-81
2023/08/27 04:04:52;;;;;;;;;2.00;2.00;;;;;;;;5055839;28;45085;-82
2023/08/27 04:07:18;;;;;;;;;1.33;1.33;;;;;;;;5051323;28;45419;-78
2023/08/27 04:09:43;;;;;;;;;2.00;1.00;;;;;;;;5073201;28;45367;-77
2023/08/27 04:12:08;;;;;;;;;1.00;1.00;;;;;;;;5069235;28;46316;-78
2023/08/27 04:14:34;;;;;;;;;2.00;1.00;;;;;;;;5074009;28;45264;-80
2023/08/27 04:16:59;;;;;;;;;2.00;2.00;;;;;;;;5056454;28;46098;-79
2023/08/27 04:19:25;;;;;;;;;2.25;1.00;;;;;;;;5048101;28;45773;-79
2023/08/27 04:21:50;;;;;;;;;1.00;1.00;;;;;;;;5056497;28;46188;-78
2023/08/27 04:24:15;;;;;;;;;1.00;1.00;;;;;;;;5052494;28;45442;-78
2023/08/27 04:26:41;;;;;;;;;2.00;1.00;;;;;;;;5053557;28;45501;-80
2023/08/27 04:29:06;;;;;;;;;2.00;0.75;;;;;;;;5057776;28;46266;-80
2023/08/27 04:31:31;;;;;;;;;3.00;1.00;;;;;;;;5057644;28;45533;-79
2023/08/27 04:33:57;;;;;;;;;2.00;2.00;;;;;;;;5064556;28;45642;-80
2023/08/27 04:36:22;;;;;;;;;0.75;0.75;;;;;;;;5049483;28;45382;-80
2023/08/27 04:38:47;;;;;;;;;2.00;1.25;;;;;;;;5065124;28;45402;-80
2023/08/27 04:41:13;;;;;;;;;0.25;0.25;;;;;;;;5038668;28;46622;-81
2023/08/27 04:43:39;;;;;;;;;2.00;2.00;;;;;;;;5066239;28;45395;-80
2023/08/27 04:46:05;;;;;;;;;3.00;1.00;;;;;;;;5049789;28;45029;-80
2023/08/27 04:48:30;;;;;;;;;3.00;1.00;;;;;;;;5054769;28;45945;-81
2023/08/27 04:50:56;;;;;;;;;1.00;1.00;;;;;;;;5070129;28;45505;-81
2023/08/27 04:53:22;;;;;;;;;1.00;1.00;;;;;;;;5066068;28;45732;-81
2023/08/27 04:55:47;;;;;;;;;2.75;1.25;;;;;;;;5063844;28;46181;-82
2023/08/27 04:58:15;;;;;;;;;1.00;1.00;;;;;;;;5066271;28;45355;-79
2023/08/27 05:00:42;;;;;;;;;2.00;2.00;;;;;;;;5066009;28;45153;-80
2023/08/27 05:03:07;;;;;;;;;1.00;1.00;;;;;;;;5047639;28;45412;-81
2023/08/27 05:05:33;;;;;;;;;1.00;1.00;;;;;;;;5048076;28;45628;-79
2023/08/27 05:07:58;;;;;;;;;1.00;1.00;;;;;;;;5066976;28;44784;-82
2023/08/27 05:10:24;;;;;;;;;2.00;2.00;;;;;;;;5049187;28;46883;-80
2023/08/27 05:12:49;;;;;;;;;2.50;0.75;;;;;;;;5067086;28;45711;-79
2023/08/27 05:15:16;;;;;;;;;2.00;2.00;;;;;;;;5067031;28;45589;-80
2023/08/27 05:17:41;;;;;;;;;1.50;1.50;;;;;;;;5066794;28;45351;-79
2023/08/27 05:20:09;;;;;;;;;0.50;0.50;;;;;;;;5065665;28;45534;-80
2023/08/27 05:22:35;;;;;;;;;0.75;0.75;;;;;;;;5052724;28;45507;-79
2023/08/27 05:25:00;;;;;;;;;1.25;1.00;;;;;;;;5064783;28;45711;-78
2023/08/27 05:27:26;;;;;;;;;2.00;0.25;;;;;;;;5048119;28;44908;-79
2023/08/27 05:29:52;;;;;;;;;1.75;1.75;;;;;;;;5061347;28;45368;-79
2023/08/27 05:32:17;;;;;;;;;0.00;0.00;;;;;;;;5058650;28;45318;-78
2023/08/27 05:34:43;;;;;;;;;2.00;2.00;;;;;;;;5048936;28;45376;-79
2023/08/27 05:37:09;;;;;;;;;1.75;1.75;;;;;;;;5080087;28;45422;-82
2023/08/27 05:39:34;;;;;;;;;1.25;1.25;;;;;;;;5071621;28;45451;-80
2023/08/27 05:41:59;;;;;;;;;1.75;1.75;;;;;;;;5047527;28;45439;-80
2023/08/27 05:44:25;;;;;;;;;1.00;1.00;;;;;;;;5045596;28;45500;-80
2023/08/27 05:46:50;;;;;;;;;0.00;0.00;;;;;;;;5045425;28;45951;-79
2023/08/27 05:49:15;;;;;;;;;1.00;1.00;;;;;;;;5064817;28;45997;-79
2023/08/27 05:51:41;;;;;;;;;1.00;1.00;;;;;;;;5066937;28;45495;-86
2023/08/27 05:54:07;;;;;;;;;0.25;0.25;;;;;;;;5057782;28;44799;-80
2023/08/27 05:56:32;;;;;;;;;1.25;1.25;;;;;;;;5049468;28;45514;-80
2023/08/27 05:58:57;;;;;;;;;2.00;0.00;;;;;;;;5056914;28;45339;-79
2023/08/27 06:01:23;;;;;;;;;3.25;1.00;;;;;;;;5095993;27;45934;-79
2023/08/27 06:03:48;;;;;;;;;1.00;1.00;;;;;;;;5043125;28;45480;-77
2023/08/27 06:06:14;;;;;;;;;2.25;1.00;;;;;;;;5041146;27;45558;-79
2023/08/27 06:08:39;;;;;;;;;0.00;0.00;;;;;;;;5041840;28;47540;-77
2023/08/27 06:11:04;;;;;;;;;1.00;1.00;;;;;;;;5064072;28;45961;-79
2023/08/27 06:13:32;;;;;;;;;1.00;1.00;;;;;;;;5061556;28;45900;-77
2023/08/27 06:15:58;;;;;;;;;2.00;2.00;;;;;;;;5062673;28;45459;-80
2023/08/27 06:18:23;;;;;;;;;1.00;1.00;;;;;;;;5060116;28;45908;-79
2023/08/27 06:20:49;;;;;;;;;1.00;1.00;;;;;;;;5057449;28;45490;-78
2023/08/27 06:23:14;;;;;;;;;3.00;0.75;;;;;;;;5057577;27;45775;-78
2023/08/27 06:25:40;;;;;;;;;1.50;1.50;;;;;;;;5047236;28;46332;-81
2023/08/27 06:28:05;;;;;;;;;3.50;1.50;;;;;;;;5049041;28;45523;-79
2023/08/27 06:30:40;;;;;;;;;0.50;0.50;;;;;;;;5062698;28;45174;-84
2023/08/27 06:33:09;;;;;;;;;1.00;1.00;;;;;;;;5059787;28;45346;-81
2023/08/27 06:35:37;;;;;;;;;0.75;0.25;;;;;;;;5069390;28;44802;-83
2023/08/27 06:41:31;;;;;;;;;1.00;1.00;;;;;;;;4959000;28;45419;-84
2023/08/27 06:44:08;;;;;;;;;11.25;10.25;;;;;;;;4953276;28;45692;-84
2023/08/27 06:46:47;;;;;;;;;5.00;5.00;;;;;;;;4958263;28;45194;-83
2023/08/27 07:02:10;;;;;;;;;3.25;2.00;;;;;;;;4906512;28;45301;-83
2023/08/27 07:04:43;;;;;;;;;5.20;4.00;;;;;;;;4923731;28;45626;-82
2023/08/27 07:07:38;;;;;;;;;1.00;1.00;;;;;;;;4988196;28;45680;-82
2023/08/27 07:10:24;;;;;;;;;;;;;;;;;;;;;
2023/08/27 07:12:54;;;;;;;;;1.75;1.50;;;;;;;;4989401;28;74674;-82
2023/08/27 07:15:20;;;;;;;;;2.00;1.00;;;;;;;;4968471;28;47080;-83
2023/08/27 07:21:11;;;;;;;;;0.75;0.75;;;;;;;;5062549;28;45144;-85
2023/08/27 07:24:23;;;;;;;;;;;;;;;;;;;;;
2023/08/27 07:26:51;;;;;;;;;1.00;1.00;;;;;;;;5061527;28;72613;-84
2023/08/27 07:29:25;;;;;;;;;0.25;0.25;;;;;;;;5042363;28;45770;-83
2023/08/27 07:32:05;;;;;;;;;1.25;0.50;;;;;;;;5059144;28;45283;-84
2023/08/27 07:34:34;;;;;;;;;1.75;1.75;;;;;;;;5044942;28;45569;-88
2023/08/27 07:37:09;;;;;;;;;0.25;0.25;;;;;;;;5063006;28;45524;-83
2023/08/27 07:40:10;;;;;;;;;0.50;0.50;;;;;;;;5064003;28;45469;-83
2023/08/27 07:42:54;;;;;;;;;1.00;1.00;;;;;;;;5037288;28;45608;-81
2023/08/27 07:45:32;;;;;;;;;2.00;1.00;;;;;;;;5047172;28;46728;-82
2023/08/27 07:48:14;;;;;;;;;1.00;1.00;;;;;;;;5042209;28;45533;-83
2023/08/27 07:51:15;;;;;;;;;3.00;1.25;;;;;;;;5066080;28;45607;-84
2023/08/27 07:53:59;;;;;;;;;3.25;1.50;;;;;;;;4980163;28;45516;-83
2023/08/27 07:59:54;;;;;;;;;1.40;1.40;;;;;;;;4941197;28;45727;-81
2023/08/27 08:03:32;;;;;;;;;;;;;;;;;;;;;
2023/08/27 08:06:19;;;;;;;;;;;;;;;;;;;;;
2023/08/27 08:15:21;;;;;;;;;2.25;0.75;;;;;;;;4996048;28;46145;-84
2023/08/27 08:18:47;;;;;;;;;;;;;;;;;;;;;
2023/08/27 08:25:09;;;;;;;;;;;;;;;;;;;;;
2023/08/27 08:43:49;;;;;;;;;1.00;1.00;;;;;;;;4893511;28;45601;-86
2023/08/27 08:46:18;;;;;;;;;0.25;0.25;;;;;;;;4890850;28;45839;-86
2023/08/27 08:48:47;;;;;;;;;1.80;0.60;;;;;;;;4970670;28;45948;-87
2023/08/27 08:51:14;;;;;;;;;0.00;0.00;;;;;;;;5052731;28;45585;-84
2023/08/27 08:54:02;;;;;;;;;1.00;1.00;;;;;;;;5030834;28;45882;-86
2023/08/27 08:56:29;;;;;;;;;1.80;0.20;;;;;;;;5024923;28;45528;-86
2023/08/27 08:58:59;;;;;;;;;0.00;0.00;;;;;;;;5040888;28;46067;-84
2023/08/27 09:01:52;;;;;;;;;1.25;0.50;;;;;;;;5056739;28;45008;-81
2023/08/27 09:04:46;;;;;;;;;;;;;;;;;;;;;
2023/08/27 09:07:13;;;;;;;;;1.00;1.00;;;;;;;;5064636;28;74402;-83
2023/08/27 09:09:49;;;;;;;;;2.40;0.40;;;;;;;;5039520;28;45570;-84
2023/08/27 09:12:16;;;;;;;;;1.75;0.50;;;;;;;;5031172;28;45720;-82
2023/08/27 09:14:42;;;;;;;;;0.50;0.50;;;;;;;;5043206;28;45400;-83
2023/08/27 09:17:13;;;;;;;;;1.25;0.00;;;;;;;;5051668;28;45638;-84
2023/08/27 09:19:43;;;;;;;;;1.00;0.00;;;;;;;;5026194;28;45537;-85
2023/08/27 09:22:12;;;;;;;;;1.00;1.00;;;;;;;;5035063;28;45698;-82
2023/08/27 09:24:37;;;;;;;;;2.00;2.00;;;;;;;;5054218;28;45694;-83
2023/08/27 09:27:10;;;;;;;;;0.00;0.00;;;;;;;;5054439;28;45892;-83
2023/08/27 09:29:37;;;;;;;;;1.20;1.00;;;;;;;;5054088;28;45738;-84
2023/08/27 09:32:33;;;;;;;;;2.00;1.00;;;;;;;;5051149;28;45786;-83
2023/08/27 09:38:57;;;;;;;;;4.25;4.25;;;;;;;;5047079;28;46912;-83
2023/08/27 09:42:01;;;;;;;;;;;;;;;;;;;;;
2023/08/27 09:44:48;;;;;;;;;2.00;0.75;;;;;;;;5030329;28;68127;-85
2023/08/27 09:47:13;;;;;;;;;1.00;1.00;;;;;;;;5032911;28;45505;-81
2023/08/27 09:49:44;;;;;;;;;1.50;1.50;;;;;;;;5032932;28;47470;-83
2023/08/27 09:52:09;;;;;;;;;1.80;1.80;;;;;;;;5025109;28;45579;-81
2023/08/27 09:54:37;;;;;;;;;1.00;1.00;;;;;;;;5047816;28;45424;-82
2023/08/27 09:57:06;;;;;;;;;0.00;0.00;;;;;;;;5035530;28;46089;-84
2023/08/27 09:59:43;;;;;;;;;2.60;1.40;;;;;;;;5053148;28;46892;-84
2023/08/27 10:02:11;;;;;;;;;0.40;0.40;;;;;;;;5034762;28;45486;-83
2023/08/27 10:04:49;;;;;;;;;1.80;1.00;;;;;;;;5033629;28;45806;-84
2023/08/27 10:07:20;;;;;;;;;0.00;0.00;;;;;;;;5027415;28;46229;-86
2023/08/27 10:09:50;;;;;;;;;1.00;1.00;;;;;;;;5033297;28;45792;-85
2023/08/27 10:12:36;;;;;;;;;2.00;2.00;;;;;;;;5033439;28;45733;-82
2023/08/27 10:15:05;;;;;;;;;0.75;0.75;;;;;;;;5024617;28;45833;-81
2023/08/27 10:17:30;;;;;;;;;0.50;0.50;;;;;;;;5020029;28;45818;-82
2023/08/27 10:19:56;;;;;;;;;2.00;1.50;;;;;;;;5043126;28;47129;-83
2023/08/27 10:22:22;;;;;;;;;1.25;1.25;;;;;;;;5022989;28;45437;-85
2023/08/27 10:24:49;;;;;;;;;1.25;1.25;;;;;;;;5019381;28;45907;-81
2023/08/27 10:27:16;;;;;;;;;1.50;1.00;;;;;;;;5042614;28;45568;-82
2023/08/27 10:29:42;;;;;;;;;1.00;1.00;;;;;;;;5032766;28;46909;-84
2023/08/27 10:32:07;;;;;;;;;1.50;1.00;;;;;;;;5026104;28;46676;-82
2023/08/27 10:34:42;;;;;;;;;1.00;1.00;;;;;;;;5028601;28;45961;-82
2023/08/27 10:37:26;;;;;;;;;1.25;1.25;;;;;;;;5039685;28;45892;-85
2023/08/27 10:40:22;;;;;;;;;9.25;8.00;;;;;;;;5021993;28;45629;-85
2023/08/27 10:43:38;;;;;;;;;1.80;1.80;;;;;;;;5055759;28;45810;-85
2023/08/27 10:46:21;;;;;;;;;9.50;9.50;;;;;;;;4975358;28;45553;-84
2023/08/27 11:07:46;;;;;;;;;6.20;6.20;;;;;;;;4895703;28;44902;-82
2023/08/27 11:10:40;;;;;;;;;6.50;5.25;;;;;;;;5007809;28;45568;-83
2023/08/27 11:16:23;;;;;;;;;2.00;0.40;;;;;;;;5047678;22;46902;-68
2023/08/27 11:18:51;;;;;;;;;0.75;0.75;;;;;;;;5022655;28;45669;-69
2023/08/27 11:21:29;;;;;;;;;0.00;0.00;;;;;;;;5057165;27;45734;-70
2023/08/27 11:24:10;;;;;;;;;1.00;1.00;;;;;;;;5047884;28;45661;-70
2023/08/27 11:26:36;;;;;;;;;1.50;1.50;;;;;;;;5043484;28;45793;-69
2023/08/27 11:29:03;;;;;;;;;0.00;0.00;;;;;;;;5046369;28;45343;-69
2023/08/27 11:31:29;;;;;;;;;1.75;1.75;;;;;;;;5050950;28;45785;-69
2023/08/27 11:34:01;;;;;;;;;0.00;0.00;;;;;;;;5041012;28;45691;-71
2023/08/27 11:36:26;;;;;;;;;3.00;1.00;;;;;;;;5022016;28;47336;-73
2023/08/27 11:38:58;;;;;;;;;3.25;2.00;;;;;;;;5030014;28;45737;-69
2023/08/27 11:41:23;;;;;;;;;3.50;3.50;;;;;;;;5040135;28;45582;-69
2023/08/27 11:43:53;;;;;;;;;2.00;2.00;;;;;;;;5037874;28;45401;-69
2023/08/27 11:46:22;;;;;;;;;12.33;8.67;;;;;;;;5042093;28;45610;-70
2023/08/27 11:48:48;;;;;;;;;2.00;2.00;;;;;;;;5030469;28;45760;-71
2023/08/27 11:51:14;;;;;;;;;2.75;2.00;;;;;;;;5042098;28;45871;-71
2023/08/27 11:53:40;;;;;;;;;3.50;3.00;;;;;;;;5042879;28;45722;-70
2023/08/27 11:56:06;;;;;;;;;1.50;1.50;;;;;;;;5033725;28;46256;-69
2023/08/27 11:58:31;;;;;;;;;2.00;2.00;;;;;;;;5031910;28;45385;-68
2023/08/27 12:00:57;;;;;;;;;6.00;4.50;;;;;;;;5057835;27;45764;-68
2023/08/27 12:03:23;;;;;;;;;3.50;2.00;;;;;;;;5038850;28;45358;-69
2023/08/27 12:05:49;;;;;;;;;5.50;5.25;;;;;;;;5064586;27;46108;-69
2023/08/27 12:08:15;;;;;;;;;2.25;1.75;;;;;;;;5053011;28;45464;-73
2023/08/27 12:10:44;;;;;;;;;0.25;0.25;;;;;;;;5051494;28;45733;-71
2023/08/27 12:13:09;;;;;;;;;2.00;1.00;;;;;;;;5052599;28;45773;-69
2023/08/27 12:15:35;;;;;;;;;1.25;1.25;;;;;;;;5061715;28;48080;-70
2023/08/27 12:18:01;;;;;;;;;0.75;0.00;;;;;;;;5049453;28;45745;-71
2023/08/27 12:20:32;;;;;;;;;1.00;1.00;;;;;;;;5044149;28;45588;-70
2023/08/27 12:23:08;;;;;;;;;2.00;0.50;;;;;;;;5041190;28;45479;-70
2023/08/27 12:25:46;;;;;;;;;3.00;1.00;;;;;;;;5051836;28;46184;-70
2023/08/27 12:28:11;;;;;;;;;0.25;0.25;;;;;;;;5052149;28;45389;-70
2023/08/27 12:30:37;;;;;;;;;0.75;0.75;;;;;;;;5049672;28;45712;-71
2023/08/27 12:33:02;;;;;;;;;1.00;1.00;;;;;;;;5049288;28;45498;-70
2023/08/27 12:35:28;;;;;;;;;1.75;1.75;;;;;;;;5034287;28;46467;-72
2023/08/27 12:37:53;;;;;;;;;1.25;1.25;;;;;;;;5034432;28;45735;-70
2023/08/27 12:40:19;;;;;;;;;1.00;1.00;;;;;;;;5050427;28;45678;-72
2023/08/27 12:42:44;;;;;;;;;0.00;0.00;;;;;;;;5026773;28;45348;-70
2023/08/27 12:45:09;;;;;;;;;0.25;0.00;;;;;;;;5046150;28;45961;-71
2023/08/27 12:47:34;;;;;;;;;0.00;0.00;;;;;;;;5036560;28;45345;-66
2023/08/27 12:50:00;;;;;;;;;3.50;2.00;;;;;;;;5042671;28;45662;-67
2023/08/27 12:52:25;;;;;;;;;0.50;0.50;;;;;;;;5051354;28;45843;-68
2023/08/27 12:54:50;;;;;;;;;1.00;1.00;;;;;;;;5031136;28;46851;-67
2023/08/27 12:57:15;;;;;;;;;0.75;0.00;;;;;;;;5034809;28;45764;-69
2023/08/27 12:59:41;;;;;;;;;0.50;0.50;;;;;;;;5052740;28;45734;-68
2023/08/27 13:02:07;;;;;;;;;0.50;0.25;;;;;;;;5048550;28;45458;-67
2023/08/27 13:04:32;;;;;;;;;0.25;0.25;;;;;;;;5045308;28;47001;-69
2023/08/27 13:06:57;;;;;;;;;0.50;0.00;;;;;;;;5045120;28;45738;-70
2023/08/27 13:09:23;;;;;;;;;0.75;0.75;;;;;;;;5052552;28;45795;-69
2023/08/27 13:11:49;;;;;;;;;0.75;0.75;;;;;;;;5058917;28;45405;-68
2023/08/27 13:14:14;;;;;;;;;1.50;0.00;;;;;;;;5052048;28;45577;-69
2023/08/27 13:16:39;;;;;;;;;1.50;0.25;;;;;;;;5047547;28;45617;-68
2023/08/27 13:19:05;;;;;;;;;1.00;1.00;;;;;;;;5048031;28;45838;-68
2023/08/27 13:21:30;;;;;;;;;2.00;0.75;;;;;;;;5027973;28;47262;-70
2023/08/27 13:23:56;;;;;;;;;1.00;0.50;;;;;;;;5050391;28;46144;-69
2023/08/27 13:26:21;;;;;;;;;2.75;2.00;;;;;;;;5043912;28;45428;-68
2023/08/27 13:28:47;;;;;;;;;4.00;3.00;;;;;;;;5059264;27;45254;-72
2023/08/27 13:31:12;;;;;;;;;2.75;1.75;;;;;;;;5036798;28;46165;-68
2023/08/27 13:33:37;;;;;;;;;3.00;1.00;;;;;;;;5036497;28;45449;-68
2023/08/27 13:36:03;;;;;;;;;0.50;0.50;;;;;;;;5044503;28;45380;-69
2023/08/27 13:38:29;;;;;;;;;0.25;0.25;;;;;;;;5047176;28;45719;-70
2023/08/27 13:40:55;;;;;;;;;4.25;3.25;;;;;;;;5029352;28;46143;-68
2023/08/27 13:43:20;;;;;;;;;2.00;2.00;;;;;;;;5039876;28;46309;-72
2023/08/27 13:45:46;;;;;;;;;1.00;1.00;;;;;;;;5042254;28;45791;-70
2023/08/27 13:48:11;;;;;;;;;1.00;1.00;;;;;;;;5047254;28;45790;-70
2023/08/27 13:50:36;;;;;;;;;0.50;0.50;;;;;;;;5038511;28;45606;-69
2023/08/27 13:53:02;;;;;;;;;0.00;0.00;;;;;;;;5049034;28;45993;-71
2023/08/27 13:55:28;;;;;;;;;2.00;1.00;;;;;;;;5051531;28;45571;-69
2023/08/27 13:57:53;;;;;;;;;0.75;0.75;;;;;;;;5045274;28;45813;-69
2023/08/27 14:00:18;;;;;;;;;1.00;1.00;;;;;;;;5052532;28;45429;-71
2023/08/27 14:02:43;;;;;;;;;1.00;1.00;;;;;;;;5054600;28;45472;-69
2023/08/27 14:05:09;;;;;;;;;0.25;0.25;;;;;;;;5036858;28;45528;-68
2023/08/27 14:07:34;;;;;;;;;1.00;0.00;;;;;;;;5041333;28;45397;-68
2023/08/27 14:10:01;;;;;;;;;3.00;1.00;;;;;;;;5037626;28;45864;-69
2023/08/27 14:12:26;;;;;;;;;1.75;1.00;;;;;;;;5058754;28;45372;-70
2023/08/27 14:14:51;;;;;;;;;2.00;1.00;;;;;;;;5048667;28;45834;-69
2023/08/27 14:17:20;;;;;;;;;0.50;0.50;;;;;;;;5054494;28;45615;-69
2023/08/27 14:19:45;;;;;;;;;0.25;0.25;;;;;;;;5054829;28;45808;-69
2023/08/27 14:22:10;;;;;;;;;1.00;1.00;;;;;;;;5051254;28;45715;-68
2023/08/27 14:24:35;;;;;;;;;1.00;0.00;;;;;;;;5049624;28;45374;-73
2023/08/27 14:27:01;;;;;;;;;0.00;0.00;;;;;;;;5064985;27;45585;-69
2023/08/27 14:29:26;;;;;;;;;0.25;0.25;;;;;;;;5043812;28;45773;-69
2023/08/27 14:31:51;;;;;;;;;1.00;1.00;;;;;;;;5043682;28;45672;-69
2023/08/27 14:34:17;;;;;;;;;0.00;0.00;;;;;;;;5052544;28;45760;-69
2023/08/27 14:36:42;;;;;;;;;0.00;0.00;;;;;;;;5038012;28;45461;-69
2023/08/27 14:39:08;;;;;;;;;0.00;0.00;;;;;;;;5034177;28;46947;-69
2023/08/27 14:41:33;;;;;;;;;0.25;0.25;;;;;;;;5050256;28;45767;-70
2023/08/27 14:43:58;;;;;;;;;0.50;0.50;;;;;;;;5032379;28;45443;-69
2023/08/27 14:46:24;;;;;;;;;0.50;0.50;;;;;;;;5048208;28;45612;-69
2023/08/27 14:48:52;;;;;;;;;0.50;0.00;;;;;;;;5034209;28;45707;-68
2023/08/27 14:51:18;;;;;;;;;2.25;1.00;;;;;;;;5042636;28;46167;-69
2023/08/27 14:53:43;;;;;;;;;1.00;1.00;;;;;;;;5041471;28;45532;-69
2023/08/27 14:56:09;;;;;;;;;2.50;0.00;;;;;;;;5055653;28;45585;-71
2023/08/27 14:58:34;;;;;;;;;1.00;1.00;;;;;;;;5044742;28;45694;-68
2023/08/27 15:01:00;;;;;;;;;0.25;0.25;;;;;;;;5048077;28;46306;-67
2023/08/27 15:03:25;;;;;;;;;1.00;0.00;;;;;;;;5031889;28;46001;-71
2023/08/27 15:05:50;;;;;;;;;1.00;1.00;;;;;;;;5044786;28;45525;-69
2023/08/27 15:08:15;;;;;;;;;0.50;0.50;;;;;;;;5030601;28;45861;-70
2023/08/27 15:10:41;;;;;;;;;0.25;0.25;;;;;;;;5041308;28;45847;-71
2023/08/27 15:13:06;;;;;;;;;2.00;0.00;;;;;;;;5045716;28;45573;-68
2023/08/27 15:15:31;;;;;;;;;0.00;0.00;;;;;;;;5041195;28;45903;-67
2023/08/27 15:17:56;;;;;;;;;0.00;0.00;;;;;;;;5035268;28;45770;-67
2023/08/27 15:20:23;;;;;;;;;2.50;0.75;;;;;;;;5057763;27;46005;-69
2023/08/27 15:22:48;;;;;;;;;0.00;0.00;;;;;;;;5018145;28;45797;-67
2023/08/27 15:25:13;;;;;;;;;1.00;1.00;;;;;;;;5047902;28;45788;-67
2023/08/27 15:27:39;;;;;;;;;0.50;0.50;;;;;;;;5032250;28;45991;-67
2023/08/27 15:30:04;;;;;;;;;1.50;1.00;;;;;;;;5039201;28;45682;-67
2023/08/27 15:32:31;;;;;;;;;0.00;0.00;;;;;;;;5042860;28;45985;-67
2023/08/27 15:34:57;;;;;;;;;0.00;0.00;;;;;;;;5027826;28;45606;-65
2023/08/27 15:37:22;;;;;;;;;2.00;1.00;;;;;;;;5038376;28;45810;-65
2023/08/27 15:39:52;;;;;;;;;1.00;1.00;;;;;;;;5060167;28;46133;-65
2023/08/27 15:42:18;;;;;;;;;0.20;0.20;;;;;;;;5059541;27;45516;-65
2023/08/27 15:44:43;;;;;;;;;0.00;0.00;;;;;;;;5050973;28;45680;-65
2023/08/27 15:47:08;;;;;;;;;0.25;0.25;;;;;;;;5067076;27;45607;-64
2023/08/27 15:49:33;;;;;;;;;0.00;0.00;;;;;;;;5051518;27;46706;-64
2023/08/27 15:51:59;;;;;;;;;0.00;0.00;;;;;;;;5057991;27;45989;-66
2023/08/27 15:54:26;;;;;;;;;1.00;1.00;;;;;;;;5055309;27;45675;-65
2023/08/27 15:56:51;;;;;;;;;1.50;0.75;;;;;;;;5065108;27;45656;-69
2023/08/27 15:59:16;;;;;;;;;0.00;0.00;;;;;;;;5056627;27;46151;-68
2023/08/27 16:01:42;;;;;;;;;1.00;1.00;;;;;;;;5048968;28;45500;-68
2023/08/27 16:04:07;;;;;;;;;1.00;1.00;;;;;;;;5047183;27;45705;-68
2023/08/27 16:06:32;;;;;;;;;1.00;1.00;;;;;;;;5034566;28;46084;-68
2023/08/27 16:09:00;;;;;;;;;3.00;2.25;;;;;;;;5037902;27;45623;-68
2023/08/27 16:11:25;;;;;;;;;1.00;1.00;;;;;;;;5056575;27;45708;-68
2023/08/27 16:13:50;;;;;;;;;0.25;0.25;;;;;;;;5059041;27;45610;-69
2023/08/27 16:16:16;;;;;;;;;1.00;1.00;;;;;;;;5050495;28;46475;-67
2023/08/27 16:18:41;;;;;;;;;1.50;1.00;;;;;;;;5032681;27;45463;-67
2023/08/27 16:21:06;;;;;;;;;1.50;1.50;;;;;;;;5049433;28;45517;-68
2023/08/27 16:23:31;;;;;;;;;0.25;0.25;;;;;;;;5068236;27;45863;-67
2023/08/27 16:25:58;;;;;;;;;0.25;0.25;;;;;;;;5070081;27;45457;-68
2023/08/27 16:28:24;;;;;;;;;1.00;1.00;;;;;;;;5082513;27;45804;-68
2023/08/27 16:30:49;;;;;;;;;1.00;1.00;;;;;;;;5069465;27;45667;-66
2023/08/27 16:33:14;;;;;;;;;3.00;1.75;;;;;;;;5042734;27;45445;-67
2023/08/27 16:35:39;;;;;;;;;1.00;1.00;;;;;;;;5069751;27;45547;-68
2023/08/27 16:38:05;;;;;;;;;1.00;0.50;;;;;;;;5068890;27;45701;-70
2023/08/27 16:40:37;;;;;;;;;2.00;2.00;;;;;;;;5052098;28;45973;-70
2023/08/27 16:43:03;;;;;;;;;5.00;3.75;;;;;;;;5070932;27;45455;-68
2023/08/27 16:45:29;;;;;;;;;1.50;1.00;;;;;;;;5063780;27;45695;-67
2023/08/27 16:47:54;;;;;;;;;0.00;0.00;;;;;;;;5061044;27;46518;-68
2023/08/27 16:50:19;;;;;;;;;1.00;1.00;;;;;;;;5058720;27;45523;-68
2023/08/27 16:52:45;;;;;;;;;0.00;0.00;;;;;;;;5059782;27;45813;-69
2023/08/27 16:55:10;;;;;;;;;0.00;0.00;;;;;;;;5071875;27;45678;-68
2023/08/27 16:57:35;;;;;;;;;0.50;0.50;;;;;;;;5070275;27;46397;-69
2023/08/27 17:00:01;;;;;;;;;2.00;1.00;;;;;;;;5059723;27;45602;-69
2023/08/27 17:02:26;;;;;;;;;1.50;1.50;;;;;;;;5062669;27;45627;-68
2023/08/27 17:04:51;;;;;;;;;4.00;2.75;;;;;;;;5067891;27;45448;-69
2023/08/27 17:07:16;;;;;;;;;2.00;2.00;;;;;;;;5067185;27;45674;-67
2023/08/27 17:09:42;;;;;;;;;2.75;2.75;;;;;;;;5060708;27;45644;-67
2023/08/27 17:12:07;;;;;;;;;1.25;1.25;;;;;;;;5083403;27;45696;-67
2023/08/27 17:14:33;;;;;;;;;2.50;1.50;;;;;;;;5056548;27;45592;-67
2023/08/27 17:16:58;;;;;;;;;1.25;1.25;;;;;;;;5063591;27;46403;-68
2023/08/27 17:19:23;;;;;;;;;1.00;1.00;;;;;;;;5066080;27;45793;-68
2023/08/27 17:21:48;;;;;;;;;1.00;1.00;;;;;;;;5063717;27;45750;-68
2023/08/27 17:24:14;;;;;;;;;2.00;2.00;;;;;;;;5060141;27;45879;-67
2023/08/27 17:26:39;;;;;;;;;1.00;1.00;;;;;;;;5058603;27;46883;-68
2023/08/27 17:29:05;;;;;;;;;3.00;0.00;;;;;;;;5056216;27;46064;-68
2023/08/27 17:31:30;;;;;;;;;0.50;0.50;;;;;;;;5054207;27;45601;-68
2023/08/27 17:33:55;;;;;;;;;1.00;1.00;;;;;;;;5064134;27;45487;-69
2023/08/27 17:36:21;;;;;;;;;1.75;1.75;;;;;;;;5065444;27;45923;-68
2023/08/27 17:38:46;;;;;;;;;0.75;0.75;;;;;;;;5066898;27;45630;-67
2023/08/27 17:41:11;;;;;;;;;0.75;0.75;;;;;;;;5066955;27;45842;-67
2023/08/27 17:43:37;;;;;;;;;2.00;1.00;;;;;;;;5051165;28;46982;-68
2023/08/27 17:46:02;;;;;;;;;1.00;1.00;;;;;;;;5066345;27;45956;-68
2023/08/27 17:48:27;;;;;;;;;1.00;1.00;;;;;;;;5058637;27;45735;-70
2023/08/27 17:50:53;;;;;;;;;1.00;1.00;;;;;;;;5053159;27;45785;-69
2023/08/27 17:53:18;;;;;;;;;0.00;0.00;;;;;;;;5065837;27;45389;-67
2023/08/27 17:55:43;;;;;;;;;0.00;0.00;;;;;;;;5060617;27;45901;-70
2023/08/27 17:58:09;;;;;;;;;1.25;1.00;;;;;;;;5050967;28;45726;-70
2023/08/27 18:00:34;;;;;;;;;1.00;1.00;;;;;;;;5061769;27;45463;-67
2023/08/27 18:02:59;;;;;;;;;1.75;1.50;;;;;;;;5059185;27;45488;-69
2023/08/27 18:05:25;;;;;;;;;15.00;13.00;;;;;;;;5059141;27;46319;-69
2023/08/27 18:07:50;;;;;;;;;9.67;8.67;;;;;;;;5058661;27;46923;-68
2023/08/27 18:10:15;;;;;;;;;1.25;1.00;;;;;;;;5044946;28;45673;-71
2023/08/27 18:12:40;;;;;;;;;1.50;1.25;;;;;;;;5062438;27;45966;-68
2023/08/27 18:15:06;;;;;;;;;2.50;2.00;;;;;;;;5037519;28;47356;-69
2023/08/27 18:17:32;;;;;;;;;1.00;1.00;;;;;;;;5069056;27;45306;-68
2023/08/27 18:19:57;;;;;;;;;2.25;1.00;;;;;;;;5070370;27;45662;-69
2023/08/27 18:22:22;;;;;;;;;1.00;1.00;;;;;;;;5063327;27;45607;-69
2023/08/27 18:24:47;;;;;;;;;1.00;1.00;;;;;;;;5063707;27;46579;-68
2023/08/27 18:27:13;;;;;;;;;1.75;1.50;;;;;;;;5065523;27;45717;-67
2023/08/27 18:29:38;;;;;;;;;1.25;1.25;;;;;;;;5063926;27;45657;-68
2023/08/27 18:32:03;;;;;;;;;1.00;1.00;;;;;;;;5069477;27;45887;-70
2023/08/27 18:34:29;;;;;;;;;3.50;2.25;;;;;;;;5068988;27;45868;-70
2023/08/27 18:36:54;;;;;;;;;1.25;1.25;;;;;;;;5059788;27;46063;-69
2023/08/27 18:39:19;;;;;;;;;3.00;3.00;;;;;;;;5050828;28;45364;-68
2023/08/27 18:41:44;;;;;;;;;1.00;1.00;;;;;;;;5068586;27;46140;-68
2023/08/27 18:44:10;;;;;;;;;3.50;2.50;;;;;;;;5066952;27;46018;-69
2023/08/27 18:46:38;;;;;;;;;3.00;3.00;;;;;;;;5061751;27;45909;-68
2023/08/27 18:49:05;;;;;;;;;2.50;2.25;;;;;;;;5065841;27;45601;-67
2023/08/27 18:51:30;;;;;;;;;3.75;3.00;;;;;;;;5066325;27;45771;-69
2023/08/27 18:53:55;;;;;;;;;1.00;1.00;;;;;;;;5050199;28;46765;-69
2023/08/27 18:56:21;;;;;;;;;4.00;2.25;;;;;;;;5050709;27;45801;-67
2023/08/27 18:58:46;;;;;;;;;3.25;1.00;;;;;;;;5053318;28;45843;-69
2023/08/27 19:01:11;;;;;;;;;1.00;1.00;;;;;;;;5070842;27;45761;-68